Time;durP1;ratioP1;P1;durP2;ratioP2;P2;SDS_P1;SDS_P2;PMS_P1;PMS_P2;Temp;Humidity;BMP_temperature;BMP_pressure;BME280_temperature;BME280_humidity;BME280_pressure;Samples;Min_cycle;Max_cycle;Signal;HPM_P1;HPM_P2
2022/11/25 00:01:13;;;;;;;30.52;14.20;;;;;;;5.26;70.66;98568.28;4491379;31;20390;-85
2022/11/25 00:03:40;;;;;;;38.22;14.75;;;;;;;5.59;69.97;98572.31;4489824;31;20420;-84
2022/11/25 00:06:10;;;;;;;32.85;14.20;;;;;;;5.65;69.56;98570.31;4505659;31;20165;-85
2022/11/25 00:08:36;;;;;;;32.65;14.50;;;;;;;5.48;69.93;98583.16;4488986;31;20104;-85
2022/11/25 00:11:02;;;;;;;33.08;13.60;;;;;;;5.59;70.18;98569.72;4476245;31;20145;-84
2022/11/25 00:13:27;;;;;;;32.92;14.07;;;;;;;5.21;71.04;98569.38;4490947;31;20107;-85
2022/11/25 00:15:52;;;;;;;32.97;12.98;;;;;;;5.47;70.19;98582.31;4503325;31;20111;-86
2022/11/25 00:18:18;;;;;;;34.78;14.68;;;;;;;5.39;70.42;98576.53;4476452;31;20164;-85
2022/11/25 00:20:43;;;;;;;32.92;13.95;;;;;;;5.53;70.00;98577.78;4503633;31;20357;-86
2022/11/25 00:23:09;;;;;;;36.28;14.77;;;;;;;5.87;68.90;98590.41;4490365;31;20140;-84
2022/11/25 00:25:34;;;;;;;34.05;14.38;;;;;;;5.95;68.52;98590.09;4491166;31;20158;-85
2022/11/25 00:28:00;;;;;;;33.78;14.00;;;;;;;5.85;68.95;98582.66;4504142;31;20096;-84
2022/11/25 00:30:25;;;;;;;36.80;14.73;;;;;;;5.72;69.37;98591.87;4502979;31;20100;-85
2022/11/25 00:32:52;;;;;;;33.38;14.87;;;;;;;5.70;69.26;98598.91;4490142;31;20352;-84
2022/11/25 00:35:17;;;;;;;33.97;13.90;;;;;;;5.62;69.91;98598.31;4505385;31;20096;-85
2022/11/25 00:37:43;;;;;;;35.22;13.68;;;;;;;5.64;69.35;98606.97;4488523;31;20163;-84
2022/11/25 00:40:09;;;;;;;36.53;14.52;;;;;;;5.82;69.14;98610.66;4489203;31;20092;-83
2022/11/25 00:45:18;;;;;;;33.42;15.05;;;;;;;5.30;70.80;98619.50;4492976;31;20570;-85
2022/11/25 00:47:44;;;;;;;33.65;14.35;;;;;;;5.59;69.91;98619.38;4503938;31;20127;-85
2022/11/25 00:50:09;;;;;;;30.85;14.15;;;;;;;5.53;70.25;98623.06;4486055;31;20113;-85
2022/11/25 00:52:35;;;;;;;34.42;14.40;;;;;;;5.43;70.32;98625.16;4501727;31;20127;-85
2022/11/25 00:55:02;;;;;;;36.47;14.60;;;;;;;5.50;70.32;98617.91;4486932;31;20100;-84
2022/11/25 00:57:28;;;;;;;34.33;13.88;;;;;;;5.27;71.19;98630.06;4501377;31;20118;-85
2022/11/25 00:59:53;;;;;;;31.65;14.07;;;;;;;5.16;71.56;98627.00;4487716;31;20092;-84
2022/11/25 01:02:19;;;;;;;33.38;14.02;;;;;;;5.30;71.34;98634.34;4485120;31;20131;-85
2022/11/25 01:04:45;;;;;;;33.63;13.57;;;;;;;5.05;72.37;98626.50;4486543;31;20451;-85
2022/11/25 01:07:10;;;;;;;33.15;13.98;;;;;;;5.24;70.99;98624.94;4487103;31;20148;-85
2022/11/25 01:09:36;;;;;;;32.00;13.43;;;;;;;5.41;70.57;98633.94;4487726;31;20092;-83
2022/11/25 01:12:02;;;;;;;31.48;13.90;;;;;;;5.41;69.83;98632.19;4500925;31;20133;-84
2022/11/25 01:14:28;;;;;;;35.47;14.15;;;;;;;5.49;69.39;98637.97;4499983;31;20119;-85
2022/11/25 01:16:53;;;;;;;30.02;12.40;;;;;;;5.55;69.37;98628.22;4486005;31;20445;-85
2022/11/25 01:19:19;;;;;;;32.83;12.73;;;;;;;5.62;68.37;98630.56;4501492;31;20107;-85
2022/11/25 01:21:44;;;;;;;32.67;13.62;;;;;;;5.41;69.19;98637.41;4486983;31;20421;-83
2022/11/25 01:24:12;;;;;;;32.58;12.70;;;;;;;5.40;69.22;98643.53;4474240;31;20161;-82
2022/11/25 01:26:38;;;;;;;33.50;13.85;;;;;;;5.19;70.31;98655.59;4487335;31;20096;-84
2022/11/25 01:29:06;;;;;;;34.15;13.60;;;;;;;5.69;68.63;98645.06;4502263;31;20099;-84
2022/11/25 01:31:34;;;;;;;30.12;12.95;;;;;;;5.37;69.13;98640.16;4499179;31;20462;-85
2022/11/25 01:34:02;;;;;;;33.85;13.55;;;;;;;5.57;68.56;98642.94;4486292;31;20128;-84
2022/11/25 01:36:28;;;;;;;31.25;12.90;;;;;;;5.41;69.24;98640.03;4486423;31;20088;-84
2022/11/25 01:38:56;;;;;;;33.80;14.02;;;;;;;5.27;69.49;98632.69;4500333;31;20163;-84
2022/11/25 01:41:23;;;;;;;31.40;12.70;;;;;;;5.24;69.50;98637.16;4486756;31;20084;-86
2022/11/25 01:44:21;;;;;;;32.72;13.30;;;;;;;5.28;69.50;98638.75;4486666;31;20116;-83
2022/11/25 01:47:08;;;;;;;31.33;14.40;;;;;;;5.24;68.81;98634.56;4408594;32;20129;-84
2022/11/25 01:49:37;;;;;;;30.92;13.13;;;;;;;5.57;68.07;98637.69;4407059;32;20081;-85
2022/11/25 01:52:06;;;;;;;32.08;14.13;;;;;;;5.85;67.38;98634.06;4420011;32;20456;-83
2022/11/25 01:54:38;;;;;;;35.30;13.73;;;;;;;5.57;68.47;98636.84;4420284;32;20203;-84
2022/11/25 01:57:09;;;;;;;34.55;14.77;;;;;;;5.42;69.07;98649.56;4407337;32;20148;-83
2022/11/25 01:59:40;;;;;;;32.42;13.45;;;;;;;5.49;68.89;98651.03;4421070;32;20144;-83
2022/11/25 02:02:06;;;;;;;30.95;13.23;;;;;;;5.50;68.70;98646.66;4408790;32;20102;-84
2022/11/25 02:04:33;;;;;;;36.20;14.80;;;;;;;5.31;69.42;98649.06;4421064;32;20109;-83
2022/11/25 02:07:07;;;;;;;34.10;14.20;;;;;;;5.29;69.80;98645.66;4405246;32;20105;-82
2022/11/25 02:09:34;;;;;;;33.88;14.27;;;;;;;5.44;69.42;98649.50;4396040;32;20330;-84
2022/11/25 02:12:00;;;;;;;33.33;13.62;;;;;;;5.60;68.69;98645.44;4407234;32;20106;-84
2022/11/25 02:14:25;;;;;;;35.35;14.43;;;;;;;5.72;67.77;98654.59;4406866;32;20267;-84
2022/11/25 02:16:51;;;;;;;34.05;14.27;;;;;;;5.67;68.11;98652.13;4421627;32;20113;-83
2022/11/25 02:19:23;;;;;;;36.25;14.57;;;;;;;5.38;68.57;98655.81;4418495;32;20130;-84
2022/11/25 02:21:55;;;;;;;35.92;14.60;;;;;;;5.51;68.71;98651.00;4416164;31;20471;-84
2022/11/25 02:24:42;;;;;;;32.90;14.35;;;;;;;5.50;68.50;98657.13;4486478;31;20111;-84
2022/11/25 02:27:07;;;;;;;36.47;13.85;;;;;;;5.17;69.69;98660.00;4485342;31;20088;-83
2022/11/25 02:29:33;;;;;;;34.40;13.68;;;;;;;5.58;68.13;98660.31;4500860;31;20114;-83
2022/11/25 02:31:59;;;;;;;35.95;14.40;;;;;;;5.86;67.33;98674.97;4473275;31;20138;-84
2022/11/25 02:34:24;;;;;;;34.47;13.95;;;;;;;5.30;68.80;98666.50;4500013;31;20504;-85
2022/11/25 02:36:50;;;;;;;32.13;13.38;;;;;;;5.49;68.74;98660.66;4487040;31;20100;-83
2022/11/25 02:39:17;;;;;;;32.83;13.38;;;;;;;5.21;69.64;98666.84;4500086;31;20122;-83
2022/11/25 02:41:55;;;;;;;32.55;13.02;;;;;;;5.38;68.87;98658.41;4487055;31;20106;-84
2022/11/25 02:44:20;;;;;;;33.67;14.20;;;;;;;5.65;67.88;98663.56;4485820;31;20434;-84
2022/11/25 02:46:45;;;;;;;36.55;14.13;;;;;;;5.36;68.14;98656.78;4500899;31;20119;-83
2022/11/25 02:49:11;;;;;;;36.15;15.52;;;;;;;5.62;67.89;98661.91;4485350;31;20156;-84
2022/11/25 02:51:38;;;;;;;35.03;14.55;;;;;;;5.01;69.99;98658.84;4486982;31;20084;-83
2022/11/25 02:54:04;;;;;;;33.20;13.90;;;;;;;5.47;68.48;98658.09;4485162;31;20095;-83
2022/11/25 02:56:32;;;;;;;35.35;14.43;;;;;;;5.59;68.13;98642.88;4470905;31;20160;-82
2022/11/25 02:58:58;;;;;;;31.70;13.15;;;;;;;5.48;68.17;98649.31;4486469;31;20122;-83
2022/11/25 03:01:23;;;;;;;29.95;12.90;;;;;;;5.52;67.75;98650.06;4485881;31;20359;-84
2022/11/25 03:03:48;;;;;;;33.40;13.52;;;;;;;5.65;66.70;98653.09;4501414;31;20375;-84
2022/11/25 03:06:14;;;;;;;30.50;12.68;;;;;;;5.82;65.83;98657.72;4500546;31;20161;-84
2022/11/25 03:08:39;;;;;;;30.88;11.93;;;;;;;6.02;65.16;98644.75;4500183;31;20134;-83
2022/11/25 03:11:05;;;;;;;30.35;11.43;;;;;;;5.68;65.83;98659.06;4500577;31;20332;-85
2022/11/25 03:13:31;;;;;;;29.75;11.70;;;;;;;5.89;64.96;98654.81;4498044;31;20138;-83
2022/11/25 03:15:56;;;;;;;27.42;10.95;;;;;;;6.28;63.65;98662.06;4486293;31;20107;-84
2022/11/25 03:18:22;;;;;;;36.00;12.85;;;;;;;6.29;63.46;98662.91;4500957;31;20225;-82
2022/11/25 03:20:51;;;;;;;31.50;12.32;;;;;;;5.80;65.30;98668.22;4500286;31;20350;-83
2022/11/25 03:23:16;;;;;;;30.05;11.25;;;;;;;6.37;63.40;98662.59;4485980;31;20131;-84
2022/11/25 03:25:42;;;;;;;30.95;11.70;;;;;;;6.15;63.95;98673.91;4500164;31;20193;-83
2022/11/25 03:28:07;;;;;;;29.33;11.98;;;;;;;6.41;63.10;98670.28;4486055;31;20100;-84
2022/11/25 03:30:33;;;;;;;29.30;11.95;;;;;;;6.32;63.46;98672.38;4499100;31;20084;-83
2022/11/25 03:32:58;;;;;;;31.40;12.65;;;;;;;6.22;63.66;98683.22;4486321;31;20119;-83
2022/11/25 03:35:24;;;;;;;32.75;12.73;;;;;;;6.44;63.21;98685.00;4483006;31;20104;-86
2022/11/25 03:37:49;;;;;;;31.65;12.80;;;;;;;5.96;64.85;98689.44;4500329;31;20092;-86
2022/11/25 03:40:15;;;;;;;32.50;12.15;;;;;;;6.23;63.96;98699.78;4499609;31;20100;-85
2022/11/25 03:42:41;;;;;;;32.72;13.45;;;;;;;6.33;63.88;98697.66;4500523;31;20104;-85
2022/11/25 03:45:08;;;;;;;30.52;11.55;;;;;;;5.76;66.13;98712.84;4485731;31;20104;-85
2022/11/25 03:47:34;;;;;;;27.67;11.82;;;;;;;5.68;66.45;98707.88;4486211;31;20109;-85
2022/11/25 03:49:59;;;;;;;30.40;12.30;;;;;;;6.00;65.13;98703.25;4499921;31;20095;-85
2022/11/25 03:52:25;;;;;;;31.12;12.85;;;;;;;5.74;65.56;98710.28;4485030;31;20509;-86
2022/11/25 03:54:50;;;;;;;29.08;12.00;;;;;;;6.21;64.49;98707.69;4499242;31;20091;-84
2022/11/25 03:57:16;;;;;;;28.87;10.77;;;;;;;5.61;66.19;98725.53;4499638;31;20430;-84
2022/11/25 03:59:41;;;;;;;26.05;10.73;;;;;;;5.53;66.61;98729.34;4499878;31;20088;-85
2022/11/25 04:02:08;;;;;;;30.90;11.98;;;;;;;5.91;65.22;98726.19;4498440;31;20462;-84
2022/11/25 04:04:33;;;;;;;29.85;11.10;;;;;;;6.13;64.60;98719.34;4485393;31;20096;-83
2022/11/25 04:06:59;;;;;;;30.05;11.32;;;;;;;5.79;65.43;98731.00;4484806;31;20130;-84
2022/11/25 04:09:24;;;;;;;29.75;11.55;;;;;;;6.04;64.71;98726.59;4500061;31;20168;-84
2022/11/25 04:14:34;;;;;;;29.90;11.32;;;;;;;5.95;64.87;98734.81;4486883;31;20246;-85
2022/11/25 04:17:00;;;;;;;27.48;11.15;;;;;;;5.99;64.93;98732.91;4498061;31;20523;-86
2022/11/25 04:19:25;;;;;;;28.23;11.65;;;;;;;6.24;63.96;98731.13;4500074;31;20390;-84
2022/11/25 04:21:50;;;;;;;28.30;11.82;;;;;;;5.49;66.50;98746.88;4499543;31;20112;-84
2022/11/25 04:24:16;;;;;;;31.90;12.37;;;;;;;5.70;65.80;98743.50;4484575;31;20152;-85
2022/11/25 04:26:41;;;;;;;28.98;12.35;;;;;;;5.62;66.05;98745.53;4487992;31;20112;-84
2022/11/25 04:29:07;;;;;;;27.80;10.95;;;;;;;5.93;65.09;98744.44;4501088;31;20112;-84
2022/11/25 04:31:32;;;;;;;29.27;11.65;;;;;;;5.94;64.89;98756.59;4501485;31;20099;-82
2022/11/25 04:33:58;;;;;;;33.40;12.13;;;;;;;6.09;64.10;98758.69;4486135;31;20116;-83
2022/11/25 04:36:23;;;;;;;28.35;11.45;;;;;;;6.01;64.28;98762.50;4500509;31;20138;-83
2022/11/25 04:38:49;;;;;;;28.87;11.38;;;;;;;6.21;63.52;98756.53;4485815;31;20123;-83
2022/11/25 04:41:14;;;;;;;28.42;11.02;;;;;;;5.87;64.57;98770.78;4500785;31;20139;-83
2022/11/25 04:43:39;;;;;;;32.22;11.98;;;;;;;6.14;63.74;98768.13;4500211;31;20488;-83
2022/11/25 04:46:05;;;;;;;28.73;11.65;;;;;;;6.01;64.19;98765.13;4501406;31;20119;-84
2022/11/25 04:48:30;;;;;;;28.85;11.35;;;;;;;5.61;65.28;98779.56;4500509;31;20375;-83
2022/11/25 04:50:56;;;;;;;30.80;12.15;;;;;;;5.47;65.77;98785.25;4501134;31;20131;-84
2022/11/25 04:53:21;;;;;;;30.60;12.20;;;;;;;5.68;65.33;98789.75;4473970;31;20126;-83
2022/11/25 04:55:47;;;;;;;31.62;12.25;;;;;;;5.60;65.61;98780.44;4501618;31;20104;-83
2022/11/25 04:58:12;;;;;;;32.63;12.90;;;;;;;5.56;65.91;98789.31;4500191;31;20164;-84
2022/11/25 05:00:38;;;;;;;32.92;12.18;;;;;;;5.55;65.76;98796.31;4500226;31;20131;-83
2022/11/25 05:03:03;;;;;;;30.40;12.48;;;;;;;5.66;65.36;98802.03;4501157;31;20428;-83
2022/11/25 05:05:29;;;;;;;31.00;12.13;;;;;;;5.48;66.45;98805.25;4501224;31;20501;-84
2022/11/25 05:07:55;;;;;;;29.42;12.18;;;;;;;6.08;64.20;98803.19;4485392;31;20093;-85
2022/11/25 05:10:20;;;;;;;28.30;11.88;;;;;;;6.19;63.64;98806.28;4501531;31;20091;-84
2022/11/25 05:12:46;;;;;;;28.42;11.27;;;;;;;5.95;64.37;98813.25;4502114;31;20118;-85
2022/11/25 05:15:11;;;;;;;28.00;12.20;;;;;;;5.78;64.57;98818.19;4500015;31;20118;-85
2022/11/25 05:17:37;;;;;;;27.62;10.43;;;;;;;6.08;63.87;98818.88;4499830;31;20088;-86
2022/11/25 05:20:03;;;;;;;26.05;10.38;;;;;;;5.53;65.21;98820.78;4500667;31;20142;-85
2022/11/25 05:22:30;;;;;;;25.58;9.85;;;;;;;5.65;64.80;98821.22;4474515;31;20100;-85
2022/11/25 05:24:56;;;;;;;23.77;9.65;;;;;;;5.65;64.39;98822.97;4499699;31;20092;-84
2022/11/25 05:27:22;;;;;;;23.73;9.90;;;;;;;5.60;64.53;98824.88;4502022;31;20076;-85
2022/11/25 05:29:48;;;;;;;24.90;9.60;;;;;;;5.84;64.17;98823.19;4501642;31;20146;-85
2022/11/25 05:32:13;;;;;;;24.50;9.40;;;;;;;5.75;64.36;98826.97;4497755;31;82323;-85
2022/11/25 05:34:39;;;;;;;25.77;10.52;;;;;;;5.75;64.58;98836.59;4501087;31;20080;-84
2022/11/25 05:37:06;;;;;;;25.10;10.23;;;;;;;5.98;63.59;98833.22;4500532;31;20144;-85
2022/11/25 05:39:31;;;;;;;25.45;9.65;;;;;;;5.63;64.79;98849.16;4485088;31;20096;-85
2022/11/25 05:41:57;;;;;;;24.00;9.32;;;;;;;5.61;64.60;98843.13;4501439;31;20513;-87
2022/11/25 05:44:22;;;;;;;25.33;9.55;;;;;;;5.96;63.50;98846.31;4500406;31;20114;-86
2022/11/25 05:46:48;;;;;;;23.25;9.43;;;;;;;6.25;62.30;98847.06;4500757;31;20096;-87
2022/11/25 05:49:14;;;;;;;24.92;9.60;;;;;;;6.42;61.82;98849.06;4501108;31;20163;-85
2022/11/25 05:51:40;;;;;;;23.27;9.52;;;;;;;5.88;63.15;98846.56;4499611;31;20083;-88
2022/11/25 05:54:05;;;;;;;24.75;9.55;;;;;;;5.69;64.06;98848.94;4501203;31;20127;-86
2022/11/25 05:56:31;;;;;;;27.48;9.50;;;;;;;6.13;62.75;98852.75;4501862;31;20469;-86
2022/11/25 05:58:58;;;;;;;23.67;9.00;;;;;;;5.84;63.12;98858.03;4499830;31;20108;-86
2022/11/25 06:01:23;;;;;;;25.88;9.68;;;;;;;6.30;62.04;98856.44;4500438;31;20778;-86
2022/11/25 06:03:49;;;;;;;25.90;9.63;;;;;;;6.14;62.55;98867.50;4501782;31;20129;-85
2022/11/25 06:06:14;;;;;;;27.77;10.55;;;;;;;6.25;62.47;98863.59;4499854;31;20115;-85
2022/11/25 06:08:40;;;;;;;22.70;9.15;;;;;;;5.89;63.56;98869.19;4499911;31;20112;-86
2022/11/25 06:11:10;;;;;;;23.48;10.10;;;;;;;6.29;62.57;98874.81;4501800;31;20096;-86
2022/11/25 06:13:36;;;;;;;23.38;9.73;;;;;;;6.37;62.19;98875.38;4501267;31;20096;-86
2022/11/25 06:16:14;;;;;;;27.55;10.70;;;;;;;6.61;61.31;98889.34;4501199;31;20104;-84
2022/11/25 06:18:40;;;;;;;30.70;11.32;;;;;;;6.52;61.71;98891.47;4485851;31;20100;-84
2022/11/25 06:21:06;;;;;;;24.60;10.20;;;;;;;6.75;60.87;98891.47;4499997;31;20415;-84
2022/11/25 06:23:32;;;;;;;26.20;10.30;;;;;;;6.89;60.58;98897.06;4500958;31;20126;-84
2022/11/25 06:26:14;;;;;;;30.60;11.45;;;;;;;6.96;60.41;98891.56;4501130;31;20080;-84
2022/11/25 06:28:39;;;;;;;26.98;12.35;;;;;;;6.88;60.69;98897.94;4501298;31;20257;-85
2022/11/25 06:31:10;;;;;;;26.95;10.88;;;;;;;7.01;60.43;98897.47;4499835;31;20108;-84
2022/11/25 06:33:36;;;;;;;27.23;11.80;;;;;;;7.11;60.35;98903.22;4499564;31;20133;-85
2022/11/25 06:36:05;;;;;;;29.77;12.15;;;;;;;7.18;60.22;98902.06;4501624;31;20424;-84
2022/11/25 06:38:31;;;;;;;29.37;11.38;;;;;;;7.20;60.19;98903.69;4485981;31;20112;-86
2022/11/25 06:41:01;;;;;;;28.77;12.60;;;;;;;7.27;59.96;98901.72;4492255;31;20108;-88
2022/11/25 06:43:26;;;;;;;28.62;11.85;;;;;;;7.17;60.11;98901.22;4492442;31;20134;-86
2022/11/25 06:45:51;;;;;;;30.00;12.60;;;;;;;7.28;60.03;98901.66;4490568;31;20096;-85
2022/11/25 06:48:17;;;;;;;28.83;12.05;;;;;;;7.24;60.12;98910.56;4477511;31;20168;-85
2022/11/25 06:50:42;;;;;;;31.60;13.18;;;;;;;7.22;60.19;98916.75;4491163;31;20084;-87
2022/11/25 06:53:08;;;;;;;30.85;12.32;;;;;;;7.14;60.38;98914.44;4494106;31;20092;-90
2022/11/25 06:55:33;;;;;;;29.87;12.73;;;;;;;7.26;60.15;98920.94;4494981;31;20111;-91
2022/11/25 06:57:58;;;;;;;31.48;13.65;;;;;;;7.16;60.50;98923.06;4490931;31;20119;-91
2022/11/25 07:00:24;;;;;;;29.60;12.73;;;;;;;7.32;60.19;98925.97;4487088;32;20436;-87
2022/11/25 07:02:49;;;;;;;34.00;13.32;;;;;;;7.47;59.83;98928.00;4487212;32;20092;-94
2022/11/25 07:05:14;;;;;;;32.97;12.32;;;;;;;7.57;59.63;98919.75;4487689;32;20113;-89
2022/11/25 07:07:40;;;;;;;31.90;13.45;;;;;;;7.59;59.63;98926.66;4472432;32;20104;-88
2022/11/25 07:10:06;;;;;;;32.95;13.75;;;;;;;7.68;59.54;98920.16;4486699;32;20116;-85
2022/11/25 07:12:32;;;;;;;31.45;12.85;;;;;;;7.70;59.44;98920.09;4472496;32;20087;-88
2022/11/25 07:14:57;;;;;;;29.05;12.77;;;;;;;7.66;59.44;98925.47;4486682;32;20140;-91
2022/11/25 07:17:22;;;;;;;30.37;13.10;;;;;;;7.41;60.31;98938.69;4487001;32;20157;-92
2022/11/25 07:19:48;;;;;;;28.90;12.48;;;;;;;7.19;60.63;98936.06;4486929;32;20136;-85
2022/11/25 07:22:13;;;;;;;27.73;12.13;;;;;;;7.57;59.90;98940.72;4486676;32;20100;-86
2022/11/25 07:24:39;;;;;;;29.27;12.27;;;;;;;7.40;60.25;98954.50;4487267;31;20072;-86
2022/11/25 07:27:05;;;;;;;26.95;11.98;;;;;;;7.28;61.11;98948.81;4487902;31;20579;-86
2022/11/25 07:29:31;;;;;;;27.65;11.82;;;;;;;7.74;59.89;98943.50;4490936;31;20092;-86
2022/11/25 07:31:56;;;;;;;28.15;11.60;;;;;;;7.94;59.28;98941.84;4491702;31;20167;-87
2022/11/25 07:34:22;;;;;;;25.25;11.23;;;;;;;8.01;58.53;98941.53;4489810;31;20080;-85
2022/11/25 07:36:48;;;;;;;33.35;13.23;;;;;;;8.05;58.52;98948.38;4490715;31;20128;-84
2022/11/25 07:39:16;;;;;;;31.75;12.23;;;;;;;8.05;58.68;98947.50;4489188;31;20143;-84
2022/11/25 07:41:42;;;;;;;28.33;11.75;;;;;;;8.02;59.16;98955.50;4492248;31;20087;-86
2022/11/25 07:44:10;;;;;;;31.02;12.63;;;;;;;8.10;58.89;98949.94;4480712;31;20492;-85
2022/11/25 07:46:37;;;;;;;31.15;13.05;;;;;;;8.26;58.53;98945.75;4458796;31;20429;-85
2022/11/25 07:49:05;;;;;;;31.20;12.63;;;;;;;8.28;58.57;98946.53;4492260;31;20092;-85
2022/11/25 07:51:36;;;;;;;25.58;10.52;;;;;;;8.31;58.37;98946.41;4479309;31;20096;-85
2022/11/25 07:54:04;;;;;;;28.48;11.80;;;;;;;8.39;57.93;98948.72;4486200;31;20119;-85
2022/11/25 07:56:30;;;;;;;27.00;11.68;;;;;;;8.46;57.52;98948.41;4483505;32;20092;-85
2022/11/25 07:58:56;;;;;;;26.60;10.85;;;;;;;8.49;57.40;98941.31;4481337;31;20118;-85
2022/11/25 08:01:22;;;;;;;26.80;10.85;;;;;;;8.26;57.97;98940.50;4493472;31;20092;-85
2022/11/25 08:03:48;;;;;;;28.10;10.95;;;;;;;8.50;57.64;98945.62;4477122;31;20084;-83
2022/11/25 08:06:17;;;;;;;27.83;11.70;;;;;;;8.45;57.84;98953.72;4477975;31;20131;-85
2022/11/25 08:08:43;;;;;;;28.85;11.60;;;;;;;8.42;57.82;98946.84;4492791;31;20763;-85
2022/11/25 08:11:18;;;;;;;29.33;11.82;;;;;;;8.55;57.83;98943.66;4480361;31;20096;-85
2022/11/25 08:13:44;;;;;;;30.60;12.37;;;;;;;8.45;58.37;98959.81;4493449;31;20092;-86
2022/11/25 08:16:11;;;;;;;31.33;13.02;;;;;;;8.35;58.62;98958.47;4492032;31;20451;-89
2022/11/25 08:18:37;;;;;;;30.35;11.45;;;;;;;8.61;57.91;98960.00;4491910;31;20121;-89
2022/11/25 08:21:05;;;;;;;30.90;13.00;;;;;;;8.70;57.72;98955.28;4475913;31;20088;-90
2022/11/25 08:23:31;;;;;;;29.10;12.75;;;;;;;8.24;59.18;98966.81;4492871;31;20396;-90
2022/11/25 08:25:57;;;;;;;26.58;11.32;;;;;;;8.59;58.11;98955.75;4497658;31;20096;-90
2022/11/25 08:28:23;;;;;;;33.45;13.10;;;;;;;8.31;58.62;98956.91;4488710;31;20092;-92
2022/11/25 08:30:48;;;;;;;29.30;12.68;;;;;;;8.37;58.66;98961.91;4494509;31;20088;-89
2022/11/25 08:33:14;;;;;;;31.58;12.75;;;;;;;8.23;59.48;98964.28;4478501;31;20114;-90
2022/11/25 08:35:39;;;;;;;30.08;13.27;;;;;;;8.38;59.06;98963.63;4474730;32;20132;-89
2022/11/25 08:38:07;;;;;;;29.95;12.77;;;;;;;8.69;58.30;98969.31;4483980;31;20191;-89
2022/11/25 08:40:34;;;;;;;29.40;12.88;;;;;;;8.69;58.68;98975.41;4475094;31;20108;-90
2022/11/25 08:43:00;;;;;;;29.67;12.43;;;;;;;8.83;58.39;98975.69;4493747;31;20089;-87
2022/11/25 08:45:25;;;;;;;31.23;12.88;;;;;;;8.77;58.62;98972.47;4492779;31;20372;-87
2022/11/25 08:47:50;;;;;;;27.25;12.02;;;;;;;9.00;58.01;98968.81;4474144;32;20115;-89
2022/11/25 08:50:16;;;;;;;29.65;12.48;;;;;;;9.12;58.29;98972.69;4484545;31;20108;-88
2022/11/25 08:52:42;;;;;;;26.02;11.05;;;;;;;8.98;58.51;98978.53;4489355;31;20153;-89
2022/11/25 08:55:08;;;;;;;24.52;10.65;;;;;;;9.31;57.61;98970.03;4490245;31;20112;-90
2022/11/25 08:57:33;;;;;;;24.00;10.27;;;;;;;9.34;57.45;98972.53;4494785;31;20757;-90
2022/11/25 08:59:59;;;;;;;23.95;10.35;;;;;;;9.05;58.13;98969.47;4489473;31;20084;-90
2022/11/25 09:02:24;;;;;;;21.58;9.30;;;;;;;8.73;59.55;98968.25;4497719;31;20144;-88
2022/11/25 09:04:50;;;;;;;22.60;9.70;;;;;;;9.07;58.89;98974.66;4490154;31;20556;-87
2022/11/25 09:07:15;;;;;;;25.20;10.07;;;;;;;9.25;58.24;98969.41;4493512;31;20153;-89
2022/11/25 09:09:40;;;;;;;25.75;10.10;;;;;;;9.42;57.76;98968.59;4495277;31;20096;-90
2022/11/25 09:12:06;;;;;;;22.55;10.02;;;;;;;9.60;57.35;98968.66;4471609;31;20092;-89
2022/11/25 09:14:31;;;;;;;23.55;10.00;;;;;;;9.70;56.99;98972.56;4484007;32;20184;-85
2022/11/25 09:16:57;;;;;;;24.98;10.95;;;;;;;9.75;56.90;98967.06;4490625;31;20132;-87
2022/11/25 09:19:22;;;;;;;22.40;8.35;;;;;;;9.96;56.23;98973.91;4496343;31;20111;-85
2022/11/25 09:21:48;;;;;;;19.80;8.52;;;;;;;9.80;56.68;98978.25;4489574;31;20509;-85
2022/11/25 09:24:13;;;;;;;19.17;7.18;;;;;;;9.74;57.08;98978.53;4479080;31;20126;-86
2022/11/25 09:26:41;;;;;;;22.85;9.25;;;;;;;9.78;57.15;98978.31;4464643;31;20124;-86
2022/11/25 09:29:06;;;;;;;21.50;7.65;;;;;;;9.95;56.69;98972.22;4478040;31;20092;-86
2022/11/25 09:31:32;;;;;;;19.00;7.28;;;;;;;9.75;57.57;98974.97;4478964;31;20704;-87
2022/11/25 09:33:57;;;;;;;21.70;8.57;;;;;;;10.10;56.44;98972.37;4491284;31;20112;-87
2022/11/25 09:36:23;;;;;;;17.95;7.82;;;;;;;9.94;56.76;98973.16;4491275;31;20504;-86
2022/11/25 09:38:50;;;;;;;16.35;6.35;;;;;;;10.30;56.11;98977.56;4493667;31;20205;-86
2022/11/25 09:47:34;;;;;;;14.55;5.28;;;;;;;10.10;56.64;98964.50;4493867;31;20119;-86
2022/11/25 09:50:25;;;;;;;14.80;5.18;;;;;;;9.92;56.42;98967.09;4481577;31;20147;-88
2022/11/25 09:53:08;;;;;;;16.65;6.03;;;;;;;10.14;55.74;98966.91;4483450;32;20088;-83
2022/11/25 09:55:38;;;;;;;14.70;5.43;;;;;;;10.24;55.63;98964.66;4484570;32;20101;-84
2022/11/25 09:58:25;;;;;;;14.00;5.22;;;;;;;10.32;55.35;98952.00;4484340;31;20172;-85
2022/11/25 10:00:51;;;;;;;14.43;5.70;;;;;;;10.36;55.41;98950.06;4485020;32;20119;-85
2022/11/25 10:03:29;;;;;;;13.82;5.03;;;;;;;10.59;54.71;98960.25;4478066;32;20172;-85
2022/11/25 10:06:03;;;;;;;15.02;5.45;;;;;;;10.35;54.76;98958.88;4496132;31;20157;-85
2022/11/25 10:08:38;;;;;;;14.30;5.15;;;;;;;10.69;53.85;98960.62;4487720;31;20173;-84
2022/11/25 10:11:06;;;;;;;15.43;6.03;;;;;;;10.62;54.43;98959.22;4479599;32;20088;-81
2022/11/25 10:13:41;;;;;;;15.02;5.40;;;;;;;10.74;54.19;98966.53;4493702;31;20096;-86
2022/11/25 10:16:18;;;;;;;13.15;5.22;;;;;;;10.65;54.63;98963.50;4486146;31;20104;-87
2022/11/25 10:18:59;;;;;;;14.85;5.50;;;;;;;10.87;53.78;98958.78;4482649;31;20100;-88
2022/11/25 10:21:24;;;;;;;14.70;5.07;;;;;;;10.89;53.52;98962.19;4491419;31;20164;-87
2022/11/25 10:23:50;;;;;;;16.92;5.35;;;;;;;10.88;53.38;98957.03;4496303;31;20087;-88
2022/11/25 10:26:16;;;;;;;14.25;5.05;;;;;;;10.85;53.19;98957.19;4473876;31;20119;-90
2022/11/25 10:29:21;;;;;;;13.48;4.68;;;;;;;11.01;52.81;98960.72;4481855;32;20130;-90
2022/11/25 10:31:46;;;;;;;13.60;5.20;;;;;;;11.15;52.48;98957.34;4490699;31;20160;-87
2022/11/25 10:34:21;;;;;;;14.45;5.57;;;;;;;11.04;53.27;98964.97;4472467;31;20084;-89
2022/11/25 10:36:47;;;;;;;16.60;5.50;;;;;;;11.17;52.62;98956.31;4494753;31;20119;-87
2022/11/25 10:39:23;;;;;;;13.82;5.18;;;;;;;11.21;53.03;98954.38;4478244;31;20509;-87
2022/11/25 10:41:51;;;;;;;15.18;5.32;;;;;;;11.08;52.82;98958.59;4489362;31;20115;-89
2022/11/25 10:44:25;;;;;;;17.70;7.72;;;;;;;11.29;52.25;98951.31;4482641;31;20490;-88
2022/11/25 10:47:17;;;;;;;25.92;10.88;;;;;;;11.39;52.36;98952.50;4488466;31;20104;-89
2022/11/25 10:49:57;;;;;;;22.98;10.35;;;;;;;11.46;52.62;98950.38;4488356;31;20168;-89
2022/11/25 10:52:27;;;;;;;24.58;10.88;;;;;;;11.51;52.78;98953.59;4483276;31;20092;-89
2022/11/25 10:55:19;;;;;;;24.75;10.98;;;;;;;11.50;53.04;98957.19;4474840;31;20119;-88
2022/11/25 10:57:45;;;;;;;27.42;11.68;;;;;;;11.61;52.14;98947.72;4489761;31;20120;-88
2022/11/25 11:00:22;;;;;;;25.88;11.12;;;;;;;11.38;52.71;98956.09;4498014;31;20076;-88
2022/11/25 11:02:48;;;;;;;25.87;10.63;;;;;;;11.53;52.45;98957.87;4487906;31;20092;-88
2022/11/25 11:05:21;;;;;;;26.90;10.73;;;;;;;11.54;52.33;98956.91;4493350;31;20164;-89
2022/11/25 11:07:47;;;;;;;20.62;9.18;;;;;;;11.49;52.20;98964.25;4495130;31;20104;-87
2022/11/25 11:10:21;;;;;;;17.23;7.07;;;;;;;10.73;54.19;98971.87;4471881;31;20334;-88
2022/11/25 11:12:59;;;;;;;17.80;7.32;;;;;;;11.38;52.18;98966.63;4480240;32;20096;-85
2022/11/25 11:15:29;;;;;;;;;;;;;;;11.46;52.02;98963.56;4478493;31;20110;-87
2022/11/25 11:17:57;;;;;;;13.10;4.72;;;;;;;10.89;53.58;98970.09;4490934;31;20083;-86
2022/11/25 11:20:23;;;;;;;;;;;;;;;11.47;52.04;98967.91;4486584;31;20163;-87
2022/11/25 11:23:00;;;;;;;15.90;5.75;;;;;;;11.65;51.67;98963.38;4480315;32;20323;-88
2022/11/25 11:25:27;;;;;;;24.08;10.55;;;;;;;11.61;51.81;98965.37;4478113;31;20160;-88
2022/11/25 11:27:52;;;;;;;26.83;12.43;;;;;;;11.49;52.35;98966.91;4485799;31;20168;-89
2022/11/25 11:30:27;;;;;;;28.87;12.25;;;;;;;11.75;52.16;98968.06;4497229;31;20482;-88
2022/11/25 11:33:00;;;;;;;30.42;13.77;;;;;;;11.91;52.43;98970.69;4473628;31;20424;-88
2022/11/25 11:35:36;;;;;;;29.63;13.50;;;;;;;12.06;52.38;98965.50;4491085;31;20086;-88
2022/11/25 11:38:16;;;;;;;28.62;13.30;;;;;;;12.14;52.55;98964.09;4497036;31;20084;-87
2022/11/25 11:40:50;;;;;;;29.20;12.85;;;;;;;12.28;52.32;98965.94;4469236;32;20096;-91